sensor_id;sensor_type;location;lat;lon;timestamp;temperature;humidity
42085;DHT22;27746;52.228;20.890;2022-12-07T00:01:33;2.10;99.90
42085;DHT22;27746;52.228;20.890;2022-12-07T00:04:02;2.10;99.90
42085;DHT22;27746;52.228;20.890;2022-12-07T00:06:31;2.10;99.90
42085;DHT22;27746;52.228;20.890;2022-12-07T00:08:59;2.20;99.90
42085;DHT22;27746;52.228;20.890;2022-12-07T00:11:26;2.10;99.90
42085;DHT22;27746;52.228;20.890;2022-12-07T00:13:54;2.10;99.90
42085;DHT22;27746;52.228;20.890;2022-12-07T00:16:24;2.10;99.90
42085;DHT22;27746;52.228;20.890;2022-12-07T00:18:51;2.10;99.90
42085;DHT22;27746;52.228;20.890;2022-12-07T00:21:20;2.20;99.90
42085;DHT22;27746;52.228;20.890;2022-12-07T00:23:51;2.20;99.90
42085;DHT22;27746;52.228;20.890;2022-12-07T00:26:21;2.20;99.90
42085;DHT22;27746;52.228;20.890;2022-12-07T00:28:50;2.20;99.90
42085;DHT22;27746;52.228;20.890;2022-12-07T00:31:19;2.20;99.90
42085;DHT22;27746;52.228;20.890;2022-12-07T00:33:47;2.20;99.90
42085;DHT22;27746;52.228;20.890;2022-12-07T00:36:16;2.20;99.90
42085;DHT22;27746;52.228;20.890;2022-12-07T00:38:43;2.20;99.90
42085;DHT22;27746;52.228;20.890;2022-12-07T00:41:11;2.20;99.90
42085;DHT22;27746;52.228;20.890;2022-12-07T00:43:41;2.20;99.90
42085;DHT22;27746;52.228;20.890;2022-12-07T00:46:09;2.20;99.90
42085;DHT22;27746;52.228;20.890;2022-12-07T00:48:36;2.20;99.90
42085;DHT22;27746;52.228;20.890;2022-12-07T00:51:04;2.20;99.90
42085;DHT22;27746;52.228;20.890;2022-12-07T00:53:31;2.20;99.90
42085;DHT22;27746;52.228;20.890;2022-12-07T00:56:05;2.30;99.90
42085;DHT22;27746;52.228;20.890;2022-12-07T00:58:32;2.30;99.90
42085;DHT22;27746;52.228;20.890;2022-12-07T01:01:01;2.30;99.90
42085;DHT22;27746;52.228;20.890;2022-12-07T01:03:28;2.30;99.90
42085;DHT22;27746;52.228;20.890;2022-12-07T01:05:56;2.30;99.90
42085;DHT22;27746;52.228;20.890;2022-12-07T01:08:25;2.30;99.90
42085;DHT22;27746;52.228;20.890;2022-12-07T01:10:58;2.40;99.90
42085;DHT22;27746;52.228;20.890;2022-12-07T01:13:25;2.40;99.90
42085;DHT22;27746;52.228;20.890;2022-12-07T01:15:57;2.40;99.90
42085;DHT22;27746;52.228;20.890;2022-12-07T01:18:30;2.40;99.90
42085;DHT22;27746;52.228;20.890;2022-12-07T01:20:58;2.40;99.90
42085;DHT22;27746;52.228;20.890;2022-12-07T01:23:25;2.40;99.90
42085;DHT22;27746;52.228;20.890;2022-12-07T01:25:54;2.50;99.90
42085;DHT22;27746;52.228;20.890;2022-12-07T01:28:21;2.50;99.90
42085;DHT22;27746;52.228;20.890;2022-12-07T01:30:55;2.50;99.90
42085;DHT22;27746;52.228;20.890;2022-12-07T01:33:22;2.50;99.90
42085;DHT22;27746;52.228;20.890;2022-12-07T01:35:50;2.50;99.90
42085;DHT22;27746;52.228;20.890;2022-12-07T01:38:17;2.50;99.90
42085;DHT22;27746;52.228;20.890;2022-12-07T01:40:44;2.50;99.90
42085;DHT22;27746;52.228;20.890;2022-12-07T01:43:15;2.60;99.90
42085;DHT22;27746;52.228;20.890;2022-12-07T01:45:43;2.60;99.90
42085;DHT22;27746;52.228;20.890;2022-12-07T01:48:11;2.60;99.90
42085;DHT22;27746;52.228;20.890;2022-12-07T01:50:40;2.60;99.90
42085;DHT22;27746;52.228;20.890;2022-12-07T01:53:10;2.60;99.90
42085;DHT22;27746;52.228;20.890;2022-12-07T01:55:41;2.60;99.90
42085;DHT22;27746;52.228;20.890;2022-12-07T01:58:09;2.60;99.90
42085;DHT22;27746;52.228;20.890;2022-12-07T02:00:37;2.60;99.90
42085;DHT22;27746;52.228;20.890;2022-12-07T02:03:06;2.70;99.90
42085;DHT22;27746;52.228;20.890;2022-12-07T02:05:35;2.60;99.90
42085;DHT22;27746;52.228;20.890;2022-12-07T02:08:04;2.60;99.90
42085;DHT22;27746;52.228;20.890;2022-12-07T02:10:32;2.60;99.90
42085;DHT22;27746;52.228;20.890;2022-12-07T02:13:02;2.70;99.90
42085;DHT22;27746;52.228;20.890;2022-12-07T02:15:38;2.70;99.90
42085;DHT22;27746;52.228;20.890;2022-12-07T02:18:11;2.70;99.90
42085;DHT22;27746;52.228;20.890;2022-12-07T02:20:49;2.70;99.90
42085;DHT22;27746;52.228;20.890;2022-12-07T02:29:39;2.60;99.90
42085;DHT22;27746;52.228;20.890;2022-12-07T02:32:12;2.60;99.90
42085;DHT22;27746;52.228;20.890;2022-12-07T02:34:46;2.70;99.90
42085;DHT22;27746;52.228;20.890;2022-12-07T02:37:21;2.60;99.90
42085;DHT22;27746;52.228;20.890;2022-12-07T02:39:55;2.70;99.90
42085;DHT22;27746;52.228;20.890;2022-12-07T02:42:25;2.70;99.90
42085;DHT22;27746;52.228;20.890;2022-12-07T02:44:54;2.70;99.90
42085;DHT22;27746;52.228;20.890;2022-12-07T02:47:22;2.60;99.90
42085;DHT22;27746;52.228;20.890;2022-12-07T02:49:51;2.70;99.90
42085;DHT22;27746;52.228;20.890;2022-12-07T02:52:18;2.70;99.90
42085;DHT22;27746;52.228;20.890;2022-12-07T02:54:45;2.60;99.90
42085;DHT22;27746;52.228;20.890;2022-12-07T02:57:27;2.60;99.90
42085;DHT22;27746;52.228;20.890;2022-12-07T03:00:05;2.60;99.90
42085;DHT22;27746;52.228;20.890;2022-12-07T03:02:40;2.60;99.90
42085;DHT22;27746;52.228;20.890;2022-12-07T03:05:27;2.60;99.90
42085;DHT22;27746;52.228;20.890;2022-12-07T03:08:02;2.60;99.90
42085;DHT22;27746;52.228;20.890;2022-12-07T03:10:38;2.60;99.90
42085;DHT22;27746;52.228;20.890;2022-12-07T03:13:09;2.60;99.90
42085;DHT22;27746;52.228;20.890;2022-12-07T03:15:45;2.60;99.90
42085;DHT22;27746;52.228;20.890;2022-12-07T03:18:17;2.60;99.90
42085;DHT22;27746;52.228;20.890;2022-12-07T03:20:46;2.60;99.90
42085;DHT22;27746;52.228;20.890;2022-12-07T03:23:16;2.60;99.90
42085;DHT22;27746;52.228;20.890;2022-12-07T03:25:47;2.60;99.90
42085;DHT22;27746;52.228;20.890;2022-12-07T03:28:17;2.60;99.90
42085;DHT22;27746;52.228;20.890;2022-12-07T03:30:48;2.50;99.90
42085;DHT22;27746;52.228;20.890;2022-12-07T03:33:19;2.50;99.90
42085;DHT22;27746;52.228;20.890;2022-12-07T03:35:50;4.50;99.90
42085;DHT22;27746;52.228;20.890;2022-12-07T03:38:20;2.40;99.90
42085;DHT22;27746;52.228;20.890;2022-12-07T03:40:54;2.40;99.90
42085;DHT22;27746;52.228;20.890;2022-12-07T03:43:22;2.40;99.90
42085;DHT22;27746;52.228;20.890;2022-12-07T03:45:59;2.40;99.90
42085;DHT22;27746;52.228;20.890;2022-12-07T03:48:32;2.40;99.90
42085;DHT22;27746;52.228;20.890;2022-12-07T03:51:05;2.40;99.90
42085;DHT22;27746;52.228;20.890;2022-12-07T03:53:34;2.30;99.90
42085;DHT22;27746;52.228;20.890;2022-12-07T03:56:03;2.30;99.90
42085;DHT22;27746;52.228;20.890;2022-12-07T03:58:31;0.00;99.90
42085;DHT22;27746;52.228;20.890;2022-12-07T04:01:01;2.30;99.90
42085;DHT22;27746;52.228;20.890;2022-12-07T04:03:28;2.60;99.90
42085;DHT22;27746;52.228;20.890;2022-12-07T04:05:54;2.20;99.90
42085;DHT22;27746;52.228;20.890;2022-12-07T04:08:21;2.10;99.90
42085;DHT22;27746;52.228;20.890;2022-12-07T04:10:48;2.20;99.90
42085;DHT22;27746;52.228;20.890;2022-12-07T04:13:15;2.10;99.90
42085;DHT22;27746;52.228;20.890;2022-12-07T04:15:42;2.10;99.90
42085;DHT22;27746;52.228;20.890;2022-12-07T04:18:10;2.10;99.90
42085;DHT22;27746;52.228;20.890;2022-12-07T04:20:37;2.10;99.90
42085;DHT22;27746;52.228;20.890;2022-12-07T04:23:03;2.10;99.90
42085;DHT22;27746;52.228;20.890;2022-12-07T04:25:30;2.10;99.90
42085;DHT22;27746;52.228;20.890;2022-12-07T04:27:57;2.00;99.90
42085;DHT22;27746;52.228;20.890;2022-12-07T04:30:24;2.00;99.90
42085;DHT22;27746;52.228;20.890;2022-12-07T04:32:51;2.00;99.90
42085;DHT22;27746;52.228;20.890;2022-12-07T04:35:19;1.90;99.90
42085;DHT22;27746;52.228;20.890;2022-12-07T04:37:46;1.90;99.90
42085;DHT22;27746;52.228;20.890;2022-12-07T04:40:12;1.90;99.90
42085;DHT22;27746;52.228;20.890;2022-12-07T04:42:39;1.90;99.90
42085;DHT22;27746;52.228;20.890;2022-12-07T04:45:07;1.90;99.90
42085;DHT22;27746;52.228;20.890;2022-12-07T04:47:35;1.90;99.90
42085;DHT22;27746;52.228;20.890;2022-12-07T04:50:03;1.90;99.90
42085;DHT22;27746;52.228;20.890;2022-12-07T04:52:33;1.90;99.90
42085;DHT22;27746;52.228;20.890;2022-12-07T04:55:00;1.80;99.90
42085;DHT22;27746;52.228;20.890;2022-12-07T04:57:27;1.80;99.90
42085;DHT22;27746;52.228;20.890;2022-12-07T04:59:53;1.80;99.90
42085;DHT22;27746;52.228;20.890;2022-12-07T05:02:20;1.80;99.90
42085;DHT22;27746;52.228;20.890;2022-12-07T05:04:47;1.70;99.90
42085;DHT22;27746;52.228;20.890;2022-12-07T05:07:14;1.70;99.90
42085;DHT22;27746;52.228;20.890;2022-12-07T05:09:42;1.60;99.90
42085;DHT22;27746;52.228;20.890;2022-12-07T05:12:09;1.60;99.90
42085;DHT22;27746;52.228;20.890;2022-12-07T05:14:36;1.60;99.90
42085;DHT22;27746;52.228;20.890;2022-12-07T05:17:02;1.50;99.90
42085;DHT22;27746;52.228;20.890;2022-12-07T05:19:29;1.50;99.90
42085;DHT22;27746;52.228;20.890;2022-12-07T05:21:56;1.50;99.90
42085;DHT22;27746;52.228;20.890;2022-12-07T05:24:23;1.40;99.90
42085;DHT22;27746;52.228;20.890;2022-12-07T05:26:51;1.40;99.90
42085;DHT22;27746;52.228;20.890;2022-12-07T05:29:18;1.40;99.90
42085;DHT22;27746;52.228;20.890;2022-12-07T05:31:45;1.40;99.90
42085;DHT22;27746;52.228;20.890;2022-12-07T05:34:12;1.40;99.90
42085;DHT22;27746;52.228;20.890;2022-12-07T05:36:39;1.40;99.90
42085;DHT22;27746;52.228;20.890;2022-12-07T05:39:06;1.40;99.90
42085;DHT22;27746;52.228;20.890;2022-12-07T05:41:33;1.40;99.90
42085;DHT22;27746;52.228;20.890;2022-12-07T05:44:19;1.40;99.90
42085;DHT22;27746;52.228;20.890;2022-12-07T05:46:47;1.40;99.90
42085;DHT22;27746;52.228;20.890;2022-12-07T05:49:14;1.40;99.90
42085;DHT22;27746;52.228;20.890;2022-12-07T05:51:42;1.40;99.90
42085;DHT22;27746;52.228;20.890;2022-12-07T05:54:09;1.40;99.90
42085;DHT22;27746;52.228;20.890;2022-12-07T05:56:35;1.40;99.90
42085;DHT22;27746;52.228;20.890;2022-12-07T05:59:02;1.70;99.90
42085;DHT22;27746;52.228;20.890;2022-12-07T06:01:48;1.30;99.90
42085;DHT22;27746;52.228;20.890;2022-12-07T06:04:15;1.30;99.90
42085;DHT22;27746;52.228;20.890;2022-12-07T06:06:41;1.30;99.90
42085;DHT22;27746;52.228;20.890;2022-12-07T06:09:08;1.30;99.90
42085;DHT22;27746;52.228;20.890;2022-12-07T06:11:35;1.20;99.90
42085;DHT22;27746;52.228;20.890;2022-12-07T06:14:25;1.30;99.90
42085;DHT22;27746;52.228;20.890;2022-12-07T06:16:53;1.20;99.90
42085;DHT22;27746;52.228;20.890;2022-12-07T06:19:20;1.20;99.90
42085;DHT22;27746;52.228;20.890;2022-12-07T06:21:47;1.20;99.90
42085;DHT22;27746;52.228;20.890;2022-12-07T06:24:15;1.20;99.90
42085;DHT22;27746;52.228;20.890;2022-12-07T06:26:42;1.20;99.90
42085;DHT22;27746;52.228;20.890;2022-12-07T06:29:09;1.10;99.90
42085;DHT22;27746;52.228;20.890;2022-12-07T06:31:37;1.10;99.90
42085;DHT22;27746;52.228;20.890;2022-12-07T06:34:07;1.30;99.90
42085;DHT22;27746;52.228;20.890;2022-12-07T06:36:35;2.10;99.90
42085;DHT22;27746;52.228;20.890;2022-12-07T06:39:03;2.10;99.90
42085;DHT22;27746;52.228;20.890;2022-12-07T06:41:30;1.10;99.90
42085;DHT22;27746;52.228;20.890;2022-12-07T06:43:57;1.10;99.90
42085;DHT22;27746;52.228;20.890;2022-12-07T06:46:24;1.10;99.90
42085;DHT22;27746;52.228;20.890;2022-12-07T06:48:51;1.90;99.90
42085;DHT22;27746;52.228;20.890;2022-12-07T06:51:19;3.50;99.90
42085;DHT22;27746;52.228;20.890;2022-12-07T06:53:45;1.90;99.90
42085;DHT22;27746;52.228;20.890;2022-12-07T06:56:12;1.10;99.90
42085;DHT22;27746;52.228;20.890;2022-12-07T06:58:40;1.10;99.90
42085;DHT22;27746;52.228;20.890;2022-12-07T07:01:09;1.20;99.90
42085;DHT22;27746;52.228;20.890;2022-12-07T07:03:37;1.20;99.90
42085;DHT22;27746;52.228;20.890;2022-12-07T07:06:05;2.30;99.90
42085;DHT22;27746;52.228;20.890;2022-12-07T07:08:34;1.20;99.90
42085;DHT22;27746;52.228;20.890;2022-12-07T07:11:01;1.30;99.90
42085;DHT22;27746;52.228;20.890;2022-12-07T07:13:28;1.20;99.90
42085;DHT22;27746;52.228;20.890;2022-12-07T07:15:55;1.20;99.90
42085;DHT22;27746;52.228;20.890;2022-12-07T07:18:22;1.30;99.90
42085;DHT22;27746;52.228;20.890;2022-12-07T07:20:50;1.20;99.90
42085;DHT22;27746;52.228;20.890;2022-12-07T07:23:17;1.30;99.90
42085;DHT22;27746;52.228;20.890;2022-12-07T07:25:45;1.20;99.90
42085;DHT22;27746;52.228;20.890;2022-12-07T07:28:12;1.30;99.90
42085;DHT22;27746;52.228;20.890;2022-12-07T07:30:39;1.80;99.90
42085;DHT22;27746;52.228;20.890;2022-12-07T07:33:06;1.30;99.90
42085;DHT22;27746;52.228;20.890;2022-12-07T07:35:34;1.50;99.90
42085;DHT22;27746;52.228;20.890;2022-12-07T07:38:02;1.30;99.90
42085;DHT22;27746;52.228;20.890;2022-12-07T07:40:29;1.90;99.90
42085;DHT22;27746;52.228;20.890;2022-12-07T07:42:58;1.30;99.90
42085;DHT22;27746;52.228;20.890;2022-12-07T07:45:26;1.30;99.90
42085;DHT22;27746;52.228;20.890;2022-12-07T07:47:53;1.30;99.90
42085;DHT22;27746;52.228;20.890;2022-12-07T07:50:20;1.40;99.90
42085;DHT22;27746;52.228;20.890;2022-12-07T07:52:47;4.10;99.90
42085;DHT22;27746;52.228;20.890;2022-12-07T07:55:14;1.40;99.90
42085;DHT22;27746;52.228;20.890;2022-12-07T07:57:41;1.40;99.90
42085;DHT22;27746;52.228;20.890;2022-12-07T08:00:12;1.40;99.90
42085;DHT22;27746;52.228;20.890;2022-12-07T08:02:39;1.40;99.90
42085;DHT22;27746;52.228;20.890;2022-12-07T08:05:08;3.50;99.90
42085;DHT22;27746;52.228;20.890;2022-12-07T08:07:35;1.40;99.90
42085;DHT22;27746;52.228;20.890;2022-12-07T08:10:03;2.40;99.90
42085;DHT22;27746;52.228;20.890;2022-12-07T08:12:30;1.50;99.90
42085;DHT22;27746;52.228;20.890;2022-12-07T08:14:57;1.50;99.90
42085;DHT22;27746;52.228;20.890;2022-12-07T08:17:25;1.50;99.90
42085;DHT22;27746;52.228;20.890;2022-12-07T08:19:52;1.90;99.90
42085;DHT22;27746;52.228;20.890;2022-12-07T08:22:19;1.60;99.90
42085;DHT22;27746;52.228;20.890;2022-12-07T08:24:46;1.60;99.90
42085;DHT22;27746;52.228;20.890;2022-12-07T08:27:13;1.60;99.90
42085;DHT22;27746;52.228;20.890;2022-12-07T08:29:39;2.70;99.90
42085;DHT22;27746;52.228;20.890;2022-12-07T08:32:07;2.00;99.90
42085;DHT22;27746;52.228;20.890;2022-12-07T08:34:35;2.00;99.90
42085;DHT22;27746;52.228;20.890;2022-12-07T08:37:02;1.70;99.90
42085;DHT22;27746;52.228;20.890;2022-12-07T08:39:29;1.80;99.90
42085;DHT22;27746;52.228;20.890;2022-12-07T08:41:56;2.00;99.90
42085;DHT22;27746;52.228;20.890;2022-12-07T08:44:23;1.80;99.90
42085;DHT22;27746;52.228;20.890;2022-12-07T08:46:52;1.80;99.90
42085;DHT22;27746;52.228;20.890;2022-12-07T08:49:23;3.30;99.90
42085;DHT22;27746;52.228;20.890;2022-12-07T08:51:52;2.50;99.90
42085;DHT22;27746;52.228;20.890;2022-12-07T08:54:21;2.20;99.90
42085;DHT22;27746;52.228;20.890;2022-12-07T08:56:49;2.50;99.90
42085;DHT22;27746;52.228;20.890;2022-12-07T08:59:18;2.00;99.90
42085;DHT22;27746;52.228;20.890;2022-12-07T09:01:45;2.20;99.90
42085;DHT22;27746;52.228;20.890;2022-12-07T09:04:12;3.10;99.90
42085;DHT22;27746;52.228;20.890;2022-12-07T09:06:39;2.20;99.90
42085;DHT22;27746;52.228;20.890;2022-12-07T09:09:08;2.20;99.90
42085;DHT22;27746;52.228;20.890;2022-12-07T09:11:35;2.30;99.90
42085;DHT22;27746;52.228;20.890;2022-12-07T09:14:02;2.30;99.90
42085;DHT22;27746;52.228;20.890;2022-12-07T09:16:29;2.30;99.90
42085;DHT22;27746;52.228;20.890;2022-12-07T09:18:56;2.40;99.90
42085;DHT22;27746;52.228;20.890;2022-12-07T09:21:23;2.50;99.90
42085;DHT22;27746;52.228;20.890;2022-12-07T09:23:50;2.50;99.90
42085;DHT22;27746;52.228;20.890;2022-12-07T09:26:18;2.50;99.90
42085;DHT22;27746;52.228;20.890;2022-12-07T09:28:45;2.60;99.90
42085;DHT22;27746;52.228;20.890;2022-12-07T09:31:11;2.60;99.90
42085;DHT22;27746;52.228;20.890;2022-12-07T09:33:39;2.60;99.90
42085;DHT22;27746;52.228;20.890;2022-12-07T09:36:07;2.70;99.90
42085;DHT22;27746;52.228;20.890;2022-12-07T09:38:35;2.70;99.90
42085;DHT22;27746;52.228;20.890;2022-12-07T09:41:05;2.70;99.90
42085;DHT22;27746;52.228;20.890;2022-12-07T09:43:35;2.70;99.90
42085;DHT22;27746;52.228;20.890;2022-12-07T09:46:03;2.80;99.90
42085;DHT22;27746;52.228;20.890;2022-12-07T09:48:33;2.80;99.90
42085;DHT22;27746;52.228;20.890;2022-12-07T09:51:02;2.80;99.90
42085;DHT22;27746;52.228;20.890;2022-12-07T09:53:37;2.90;99.90
42085;DHT22;27746;52.228;20.890;2022-12-07T09:56:05;2.90;99.90
42085;DHT22;27746;52.228;20.890;2022-12-07T09:58:34;2.90;99.90
42085;DHT22;27746;52.228;20.890;2022-12-07T10:01:11;2.90;99.90
42085;DHT22;27746;52.228;20.890;2022-12-07T10:03:42;2.90;99.90
42085;DHT22;27746;52.228;20.890;2022-12-07T10:06:12;2.90;99.90
42085;DHT22;27746;52.228;20.890;2022-12-07T10:08:41;3.00;99.90
42085;DHT22;27746;52.228;20.890;2022-12-07T10:11:10;3.00;99.90
42085;DHT22;27746;52.228;20.890;2022-12-07T10:13:40;3.00;99.90
42085;DHT22;27746;52.228;20.890;2022-12-07T10:16:31;4.90;99.90
42085;DHT22;27746;52.228;20.890;2022-12-07T10:19:17;3.00;99.90
42085;DHT22;27746;52.228;20.890;2022-12-07T10:22:04;3.10;99.90
42085;DHT22;27746;52.228;20.890;2022-12-07T10:24:31;3.00;99.90
42085;DHT22;27746;52.228;20.890;2022-12-07T10:26:59;3.00;99.90
42085;DHT22;27746;52.228;20.890;2022-12-07T10:29:31;3.00;99.90
42085;DHT22;27746;52.228;20.890;2022-12-07T10:32:02;3.30;99.90
42085;DHT22;27746;52.228;20.890;2022-12-07T10:34:30;3.00;99.90
42085;DHT22;27746;52.228;20.890;2022-12-07T10:37:23;3.00;99.90
42085;DHT22;27746;52.228;20.890;2022-12-07T10:39:58;3.10;99.90
42085;DHT22;27746;52.228;20.890;2022-12-07T10:42:27;3.60;99.90
42085;DHT22;27746;52.228;20.890;2022-12-07T10:45:09;4.00;99.90
42085;DHT22;27746;52.228;20.890;2022-12-07T10:47:40;3.10;99.90
42085;DHT22;27746;52.228;20.890;2022-12-07T10:50:29;3.10;99.90
42085;DHT22;27746;52.228;20.890;2022-12-07T10:53:11;3.10;99.90
42085;DHT22;27746;52.228;20.890;2022-12-07T10:55:52;4.80;99.90
42085;DHT22;27746;52.228;20.890;2022-12-07T10:58:36;3.10;99.90
42085;DHT22;27746;52.228;20.890;2022-12-07T11:01:15;3.10;99.90
42085;DHT22;27746;52.228;20.890;2022-12-07T11:03:52;4.20;99.90
42085;DHT22;27746;52.228;20.890;2022-12-07T11:06:27;3.20;99.90
42085;DHT22;27746;52.228;20.890;2022-12-07T11:09:06;3.20;99.90
42085;DHT22;27746;52.228;20.890;2022-12-07T11:11:47;3.20;99.90
42085;DHT22;27746;52.228;20.890;2022-12-07T11:14:23;3.20;99.90
42085;DHT22;27746;52.228;20.890;2022-12-07T11:16:56;3.20;99.90
42085;DHT22;27746;52.228;20.890;2022-12-07T11:19:34;3.20;99.90
42085;DHT22;27746;52.228;20.890;2022-12-07T11:22:13;3.20;99.90
42085;DHT22;27746;52.228;20.890;2022-12-07T11:24:49;3.20;99.90
42085;DHT22;27746;52.228;20.890;2022-12-07T11:27:24;3.20;99.90
42085;DHT22;27746;52.228;20.890;2022-12-07T11:30:10;3.20;99.90
42085;DHT22;27746;52.228;20.890;2022-12-07T11:32:54;3.20;99.90
42085;DHT22;27746;52.228;20.890;2022-12-07T11:35:35;3.20;99.90
42085;DHT22;27746;52.228;20.890;2022-12-07T11:38:12;3.20;99.90
42085;DHT22;27746;52.228;20.890;2022-12-07T11:40:43;3.20;99.90
42085;DHT22;27746;52.228;20.890;2022-12-07T11:43:18;4.80;99.90
42085;DHT22;27746;52.228;20.890;2022-12-07T11:45:52;3.30;99.90
42085;DHT22;27746;52.228;20.890;2022-12-07T11:48:28;3.30;99.90
42085;DHT22;27746;52.228;20.890;2022-12-07T11:51:00;3.30;99.90
42085;DHT22;27746;52.228;20.890;2022-12-07T11:53:31;3.90;99.90
42085;DHT22;27746;52.228;20.890;2022-12-07T11:56:03;3.30;99.90
42085;DHT22;27746;52.228;20.890;2022-12-07T11:58:46;4.80;99.90
42085;DHT22;27746;52.228;20.890;2022-12-07T12:01:24;2.70;99.90
42085;DHT22;27746;52.228;20.890;2022-12-07T12:03:58;3.40;99.90
42085;DHT22;27746;52.228;20.890;2022-12-07T12:06:27;3.40;99.90
42085;DHT22;27746;52.228;20.890;2022-12-07T12:08:58;3.40;99.90
42085;DHT22;27746;52.228;20.890;2022-12-07T12:11:39;3.40;99.90
42085;DHT22;27746;52.228;20.890;2022-12-07T12:14:28;3.30;99.90
42085;DHT22;27746;52.228;20.890;2022-12-07T12:17:32;3.20;99.90
42085;DHT22;27746;52.228;20.890;2022-12-07T12:20:13;3.10;99.90
42085;DHT22;27746;52.228;20.890;2022-12-07T12:22:45;3.10;99.90
42085;DHT22;27746;52.228;20.890;2022-12-07T12:25:21;3.10;99.90
42085;DHT22;27746;52.228;20.890;2022-12-07T12:27:58;1.80;99.90
42085;DHT22;27746;52.228;20.890;2022-12-07T12:30:31;3.00;99.90
42085;DHT22;27746;52.228;20.890;2022-12-07T12:33:06;3.00;99.90
42085;DHT22;27746;52.228;20.890;2022-12-07T12:35:40;3.60;99.90
42085;DHT22;27746;52.228;20.890;2022-12-07T12:38:27;3.10;99.90
42085;DHT22;27746;52.228;20.890;2022-12-07T12:40:56;3.00;99.90
42085;DHT22;27746;52.228;20.890;2022-12-07T12:43:50;3.00;99.90
42085;DHT22;27746;52.228;20.890;2022-12-07T12:46:50;2.90;99.90
42085;DHT22;27746;52.228;20.890;2022-12-07T12:49:38;2.90;99.90
42085;DHT22;27746;52.228;20.890;2022-12-07T12:55:54;2.90;99.90
42085;DHT22;27746;52.228;20.890;2022-12-07T13:01:45;2.90;99.90
42085;DHT22;27746;52.228;20.890;2022-12-07T13:04:34;2.80;99.90
42085;DHT22;27746;52.228;20.890;2022-12-07T13:07:03;2.80;99.90
42085;DHT22;27746;52.228;20.890;2022-12-07T13:09:33;2.80;99.90
42085;DHT22;27746;52.228;20.890;2022-12-07T13:12:05;2.70;99.90
42085;DHT22;27746;52.228;20.890;2022-12-07T13:14:56;3.60;99.90
42085;DHT22;27746;52.228;20.890;2022-12-07T13:17:55;5.50;99.90
42085;DHT22;27746;52.228;20.890;2022-12-07T13:20:47;2.70;99.90
42085;DHT22;27746;52.228;20.890;2022-12-07T13:23:18;2.70;99.90
42085;DHT22;27746;52.228;20.890;2022-12-07T13:25:53;2.70;99.90
42085;DHT22;27746;52.228;20.890;2022-12-07T13:28:23;2.70;99.90
42085;DHT22;27746;52.228;20.890;2022-12-07T13:31:16;2.80;99.90
42085;DHT22;27746;52.228;20.890;2022-12-07T13:33:46;2.60;99.90
42085;DHT22;27746;52.228;20.890;2022-12-07T13:36:22;4.80;99.90
42085;DHT22;27746;52.228;20.890;2022-12-07T13:38:53;2.60;99.90
42085;DHT22;27746;52.228;20.890;2022-12-07T13:41:21;2.60;99.90
42085;DHT22;27746;52.228;20.890;2022-12-07T13:43:52;5.10;99.90
42085;DHT22;27746;52.228;20.890;2022-12-07T13:46:25;2.60;99.90
42085;DHT22;27746;52.228;20.890;2022-12-07T13:48:52;2.50;99.90
42085;DHT22;27746;52.228;20.890;2022-12-07T13:51:34;2.60;99.90
42085;DHT22;27746;52.228;20.890;2022-12-07T13:54:09;2.50;99.90
42085;DHT22;27746;52.228;20.890;2022-12-07T13:56:36;2.50;99.90
42085;DHT22;27746;52.228;20.890;2022-12-07T13:59:13;2.40;99.90
42085;DHT22;27746;52.228;20.890;2022-12-07T14:01:40;2.40;99.90
42085;DHT22;27746;52.228;20.890;2022-12-07T14:04:29;2.40;99.90
42085;DHT22;27746;52.228;20.890;2022-12-07T14:06:56;3.20;99.90
42085;DHT22;27746;52.228;20.890;2022-12-07T14:09:25;2.30;99.90
42085;DHT22;27746;52.228;20.890;2022-12-07T14:11:54;2.30;99.90
42085;DHT22;27746;52.228;20.890;2022-12-07T14:14:24;2.20;99.90
42085;DHT22;27746;52.228;20.890;2022-12-07T14:16:57;2.20;99.90
42085;DHT22;27746;52.228;20.890;2022-12-07T14:19:46;2.10;99.90
42085;DHT22;27746;52.228;20.890;2022-12-07T14:22:25;2.10;99.90
42085;DHT22;27746;52.228;20.890;2022-12-07T14:24:59;2.10;99.90
42085;DHT22;27746;52.228;20.890;2022-12-07T14:27:31;2.10;99.90
42085;DHT22;27746;52.228;20.890;2022-12-07T14:30:01;2.20;99.90
42085;DHT22;27746;52.228;20.890;2022-12-07T14:32:29;2.00;99.90
42085;DHT22;27746;52.228;20.890;2022-12-07T14:34:59;2.00;99.90
42085;DHT22;27746;52.228;20.890;2022-12-07T14:37:27;1.90;99.90
42085;DHT22;27746;52.228;20.890;2022-12-07T14:39:54;1.90;99.90
42085;DHT22;27746;52.228;20.890;2022-12-07T14:42:24;1.90;99.90
42085;DHT22;27746;52.228;20.890;2022-12-07T14:44:51;1.90;99.90
42085;DHT22;27746;52.228;20.890;2022-12-07T14:47:19;1.80;99.90
42085;DHT22;27746;52.228;20.890;2022-12-07T14:49:46;1.80;99.90
42085;DHT22;27746;52.228;20.890;2022-12-07T14:52:16;2.90;99.90
42085;DHT22;27746;52.228;20.890;2022-12-07T14:54:43;1.70;99.90
42085;DHT22;27746;52.228;20.890;2022-12-07T14:57:11;1.70;99.90
42085;DHT22;27746;52.228;20.890;2022-12-07T14:59:38;1.70;99.90
42085;DHT22;27746;52.228;20.890;2022-12-07T15:02:05;1.70;99.90
42085;DHT22;27746;52.228;20.890;2022-12-07T15:04:34;2.10;99.90
42085;DHT22;27746;52.228;20.890;2022-12-07T15:07:03;1.60;99.90
42085;DHT22;27746;52.228;20.890;2022-12-07T15:09:30;-0.10;99.90
42085;DHT22;27746;52.228;20.890;2022-12-07T15:11:57;1.60;99.90
42085;DHT22;27746;52.228;20.890;2022-12-07T15:14:24;1.60;99.90
42085;DHT22;27746;52.228;20.890;2022-12-07T15:16:51;2.80;99.90
42085;DHT22;27746;52.228;20.890;2022-12-07T15:19:19;1.60;99.90
42085;DHT22;27746;52.228;20.890;2022-12-07T15:21:49;1.60;99.90
42085;DHT22;27746;52.228;20.890;2022-12-07T15:24:16;1.60;99.90
42085;DHT22;27746;52.228;20.890;2022-12-07T15:26:45;1.70;99.90
42085;DHT22;27746;52.228;20.890;2022-12-07T15:29:12;1.70;99.90
42085;DHT22;27746;52.228;20.890;2022-12-07T15:31:40;1.70;99.90
42085;DHT22;27746;52.228;20.890;2022-12-07T15:34:07;1.70;99.90
42085;DHT22;27746;52.228;20.890;2022-12-07T15:36:34;1.70;99.90
42085;DHT22;27746;52.228;20.890;2022-12-07T15:39:03;1.80;99.90
42085;DHT22;27746;52.228;20.890;2022-12-07T15:41:29;1.70;99.90
42085;DHT22;27746;52.228;20.890;2022-12-07T15:43:56;1.70;99.90
42085;DHT22;27746;52.228;20.890;2022-12-07T15:46:41;1.80;99.90
42085;DHT22;27746;52.228;20.890;2022-12-07T15:49:11;1.80;99.90
42085;DHT22;27746;52.228;20.890;2022-12-07T15:51:38;2.40;99.90
42085;DHT22;27746;52.228;20.890;2022-12-07T15:54:07;1.80;99.90
42085;DHT22;27746;52.228;20.890;2022-12-07T15:56:34;2.00;99.90
42085;DHT22;27746;52.228;20.890;2022-12-07T15:59:01;1.80;99.90
42085;DHT22;27746;52.228;20.890;2022-12-07T16:01:29;1.90;99.90
42085;DHT22;27746;52.228;20.890;2022-12-07T16:03:57;1.90;99.90
42085;DHT22;27746;52.228;20.890;2022-12-07T16:06:24;1.90;99.90